JAD weather

Perth Jandakot Airport
Perth, Western Australia, Australia

Public forecast

Using degrees Celsius for public forecast. Weather courtesy of forecast.io.

METAR (pilot weather report)

Retrieved 2019/02/20 13:00 UTC (29 minutes ago):

YPJT 201300Z AUTO 25005KT 9999 // NCD 20/17 Q1012 RF00.0/000.0

TAF (pilot weather forecast)

Retrieved 2019/02/20 12:00 UTC (1 hour ago):

TAF YPJT 201014Z 2012/2106 26014KT CAVOK FM201400 27008KT 9999 BKN008 FM210100 26008KT 9999 BKN020 FM210200 26014KT 9999 SCT025 PROB30 2016/2024 0300 FG